Aviation Digital Data Service (ADDS)

Output produced by METARs form (2049 UTC 20 August 2019)
found at http://www.aviationweather.gov/metar/data/
 
METAR text: DRZA 201800Z 28010KT 9999 TS FEW030 SCT040CB 30/20 Q1011
Conditions at: DRZA (AGADEZ SOUTH (MI, NE) observed 1800 UTC 20 August 2019
Temperature: 30.0°C (86°F)
Dewpoint: 20.0°C (68°F) [RH = 55%]
Pressure (altimeter): 29.85 inches Hg (1011.0 mb)
Winds: from the W (280 degrees) at 12 MPH (10 knots; 5.1 m/s)
Visibility: 6 or more miles (10+ km)
Ceiling: at least 12,000 feet AGL
Clouds: few clouds at 3000 feet AGL
scattered clouds at 4000 feet AGL
Weather: TS  (thunderstorm)

METAR text: DRZA 201700Z 28010KT 9999 TS FEW030 FEW040CB 35/20 Q1011
Conditions at: DRZA (AGADEZ SOUTH (MI, NE) observed 1700 UTC 20 August 2019
Temperature: 35.0°C (95°F)
Dewpoint: 20.0°C (68°F) [RH = 42%]
Pressure (altimeter): 29.85 inches Hg (1011.0 mb)
Winds: from the W (280 degrees) at 12 MPH (10 knots; 5.1 m/s)
Visibility: 6 or more miles (10+ km)
Ceiling: at least 12,000 feet AGL
Clouds: few clouds at 3000 feet AGL
few clouds at 4000 feet AGL
Weather: TS  (thunderstorm)

METAR text: DRZA 201600Z 28010KT 9999 BKN030 FEW040CB 35/20 Q1010
Conditions at: DRZA (AGADEZ SOUTH (MI, NE) observed 1600 UTC 20 August 2019
Temperature: 35.0°C (95°F)
Dewpoint: 20.0°C (68°F) [RH = 42%]
Pressure (altimeter): 29.82 inches Hg (1010.0 mb)
Winds: from the W (280 degrees) at 12 MPH (10 knots; 5.1 m/s)
Visibility: 6 or more miles (10+ km)
Ceiling: 3000 feet AGL
Clouds: broken clouds at 3000 feet AGL
few clouds at 4000 feet AGL
Weather: no significant weather observed at this time

METAR text: DRZA 201500Z 28010KT 9999 BKN030 FEW040CB 36/21 Q1011
Conditions at: DRZA (AGADEZ SOUTH (MI, NE) observed 1500 UTC 20 August 2019
Temperature: 36.0°C (97°F)
Dewpoint: 21.0°C (70°F) [RH = 42%]
Pressure (altimeter): 29.85 inches Hg (1011.0 mb)
Winds: from the W (280 degrees) at 12 MPH (10 knots; 5.1 m/s)
Visibility: 6 or more miles (10+ km)
Ceiling: 3000 feet AGL
Clouds: broken clouds at 3000 feet AGL
few clouds at 4000 feet AGL
Weather: no significant weather observed at this time

METAR text: DRZA 201400Z 28006KT 9999 BKN030 FEW040CB 36/21 Q1011
Conditions at: DRZA (AGADEZ SOUTH (MI, NE) observed 1400 UTC 20 August 2019
Temperature: 36.0°C (97°F)
Dewpoint: 21.0°C (70°F) [RH = 42%]
Pressure (altimeter): 29.85 inches Hg (1011.0 mb)
Winds: from the W (280 degrees) at 7 MPH (6 knots; 3.1 m/s)
Visibility: 6 or more miles (10+ km)
Ceiling: 3000 feet AGL
Clouds: broken clouds at 3000 feet AGL
few clouds at 4000 feet AGL
Weather: no significant weather observed at this time

METAR text: DRZA 201300Z 28008KT 9999 BKN030 35/21 Q1012
Conditions at: DRZA (AGADEZ SOUTH (MI, NE) observed 1300 UTC 20 August 2019
Temperature: 35.0°C (95°F)
Dewpoint: 21.0°C (70°F) [RH = 44%]
Pressure (altimeter): 29.88 inches Hg (1012.0 mb)
Winds: from the W (280 degrees) at 9 MPH (8 knots; 4.1 m/s)
Visibility: 6 or more miles (10+ km)
Ceiling: 3000 feet AGL
Clouds: broken clouds at 3000 feet AGL
Weather: no significant weather observed at this time

METAR text: DRZA 201200Z 28008KT 9999 SCT030 33/21 Q1013
Conditions at: DRZA (AGADEZ SOUTH (MI, NE) observed 1200 UTC 20 August 2019
Temperature: 33.0°C (91°F)
Dewpoint: 21.0°C (70°F) [RH = 49%]
Pressure (altimeter): 29.91 inches Hg (1013.0 mb)
Winds: from the W (280 degrees) at 9 MPH (8 knots; 4.1 m/s)
Visibility: 6 or more miles (10+ km)
Ceiling: at least 12,000 feet AGL
Clouds: scattered clouds at 3000 feet AGL
Weather: no significant weather observed at this time

METAR text: DRZA 201100Z 28006KT 9999 SCT030 33/21 Q1013
Conditions at: DRZA (AGADEZ SOUTH (MI, NE) observed 1100 UTC 20 August 2019
Temperature: 33.0°C (91°F)
Dewpoint: 21.0°C (70°F) [RH = 49%]
Pressure (altimeter): 29.91 inches Hg (1013.0 mb)
Winds: from the W (280 degrees) at 7 MPH (6 knots; 3.1 m/s)
Visibility: 6 or more miles (10+ km)
Ceiling: at least 12,000 feet AGL
Clouds: scattered clouds at 3000 feet AGL
Weather: no significant weather observed at this time

METAR text: DRZA 201000Z 26010KT 9999 SCT030 31/22 Q1014
Conditions at: DRZA (AGADEZ SOUTH (MI, NE) observed 1000 UTC 20 August 2019
Temperature: 31.0°C (88°F)
Dewpoint: 22.0°C (72°F) [RH = 59%]
Pressure (altimeter): 29.94 inches Hg (1014.0 mb)
Winds: from the W (260 degrees) at 12 MPH (10 knots; 5.1 m/s)
Visibility: 6 or more miles (10+ km)
Ceiling: at least 12,000 feet AGL
Clouds: scattered clouds at 3000 feet AGL
Weather: no significant weather observed at this time

METAR text: DRZA 200900Z 26008KT 9999 FEW030 30/22 Q1014
Conditions at: DRZA (AGADEZ SOUTH (MI, NE) observed 0900 UTC 20 August 2019
Temperature: 30.0°C (86°F)
Dewpoint: 22.0°C (72°F) [RH = 62%]
Pressure (altimeter): 29.94 inches Hg (1014.0 mb)
Winds: from the W (260 degrees) at 9 MPH (8 knots; 4.1 m/s)
Visibility: 6 or more miles (10+ km)
Ceiling: at least 12,000 feet AGL
Clouds: few clouds at 3000 feet AGL
Weather: no significant weather observed at this time

METAR text: DRZA 200800Z 28006KT CAVOK 29/22 Q1014
Conditions at: DRZA (AGADEZ SOUTH (MI, NE) observed 0800 UTC 20 August 2019
Temperature: 29.0°C (84°F)
Dewpoint: 22.0°C (72°F) [RH = 66%]
Pressure (altimeter): 29.94 inches Hg (1014.0 mb)
Winds: from the W (280 degrees) at 7 MPH (6 knots; 3.1 m/s)
Visibility: 6 or more miles (10+ km)
Ceiling: ceiling and visibility are OK
Clouds: unknown
Weather: no significant weather observed at this time

METAR text: DRZA 200700Z 28006KT CAVOK 28/22 Q1013
Conditions at: DRZA (AGADEZ SOUTH (MI, NE) observed 0700 UTC 20 August 2019
Temperature: 28.0°C (82°F)
Dewpoint: 22.0°C (72°F) [RH = 70%]
Pressure (altimeter): 29.91 inches Hg (1013.0 mb)
Winds: from the W (280 degrees) at 7 MPH (6 knots; 3.1 m/s)
Visibility: 6 or more miles (10+ km)
Ceiling: ceiling and visibility are OK
Clouds: unknown
Weather: no significant weather observed at this time

METAR text: DRZA 200600Z 26008KT CAVOK 27/22 Q1013
Conditions at: DRZA (AGADEZ SOUTH (MI, NE) observed 0600 UTC 20 August 2019
Temperature: 27.0°C (81°F)
Dewpoint: 22.0°C (72°F) [RH = 74%]
Pressure (altimeter): 29.91 inches Hg (1013.0 mb)
Winds: from the W (260 degrees) at 9 MPH (8 knots; 4.1 m/s)
Visibility: 6 or more miles (10+ km)
Ceiling: ceiling and visibility are OK
Clouds: unknown
Weather: no significant weather observed at this time

METAR text: DRZA 200500Z 26006KT CAVOK 27/22 Q1012
Conditions at: DRZA (AGADEZ SOUTH (MI, NE) observed 0500 UTC 20 August 2019
Temperature: 27.0°C (81°F)
Dewpoint: 22.0°C (72°F) [RH = 74%]
Pressure (altimeter): 29.88 inches Hg (1012.0 mb)
Winds: from the W (260 degrees) at 7 MPH (6 knots; 3.1 m/s)
Visibility: 6 or more miles (10+ km)
Ceiling: ceiling and visibility are OK
Clouds: unknown
Weather: no significant weather observed at this time

METAR text: DRZA 191800Z 00000KT CAVOK 37/14 Q1008
Conditions at: DRZA (AGADEZ SOUTH (MI, NE) observed 1800 UTC 19 August 2019
Temperature: 37.0°C (99°F)
Dewpoint: 14.0°C (57°F) [RH = 25%]
Pressure (altimeter): 29.76 inches Hg (1008.0 mb)
Winds: calm
Visibility: 6 or more miles (10+ km)
Ceiling: ceiling and visibility are OK
Clouds: unknown
Weather: no significant weather observed at this time

METAR text: DRZA 191700Z 00000KT CAVOK 38/15 Q1008
Conditions at: DRZA (AGADEZ SOUTH (MI, NE) observed 1700 UTC 19 August 2019
Temperature: 38.0°C (100°F)
Dewpoint: 15.0°C (59°F) [RH = 26%]
Pressure (altimeter): 29.76 inches Hg (1008.0 mb)
Winds: calm
Visibility: 6 or more miles (10+ km)
Ceiling: ceiling and visibility are OK
Clouds: unknown
Weather: no significant weather observed at this time

METAR text: DRZA 191600Z 10006KT CAVOK 38/15 Q1009
Conditions at: DRZA (AGADEZ SOUTH (MI, NE) observed 1600 UTC 19 August 2019
Temperature: 38.0°C (100°F)
Dewpoint: 15.0°C (59°F) [RH = 26%]
Pressure (altimeter): 29.79 inches Hg (1009.0 mb)
Winds: from the E (100 degrees) at 7 MPH (6 knots; 3.1 m/s)
Visibility: 6 or more miles (10+ km)
Ceiling: ceiling and visibility are OK
Clouds: unknown
Weather: no significant weather observed at this time

METAR text: DRZA 191500Z 36006KT CAVOK 38/15 Q1009
Conditions at: DRZA (AGADEZ SOUTH (MI, NE) observed 1500 UTC 19 August 2019
Temperature: 38.0°C (100°F)
Dewpoint: 15.0°C (59°F) [RH = 26%]
Pressure (altimeter): 29.79 inches Hg (1009.0 mb)
Winds: from the N (360 degrees) at 7 MPH (6 knots; 3.1 m/s)
Visibility: 6 or more miles (10+ km)
Ceiling: ceiling and visibility are OK
Clouds: unknown
Weather: no significant weather observed at this time

METAR text: DRZA 191400Z 36004KT CAVOK 38/15 Q1009
Conditions at: DRZA (AGADEZ SOUTH (MI, NE) observed 1400 UTC 19 August 2019
Temperature: 38.0°C (100°F)
Dewpoint: 15.0°C (59°F) [RH = 26%]
Pressure (altimeter): 29.79 inches Hg (1009.0 mb)
Winds: from the N (360 degrees) at 5 MPH (4 knots; 2.1 m/s)
Visibility: 6 or more miles (10+ km)
Ceiling: ceiling and visibility are OK
Clouds: unknown
Weather: no significant weather observed at this time

METAR text: DRZA 191300Z 22004KT CAVOK 37/16 Q1010
Conditions at: DRZA (AGADEZ SOUTH (MI, NE) observed 1300 UTC 19 August 2019
Temperature: 37.0°C (99°F)
Dewpoint: 16.0°C (61°F) [RH = 29%]
Pressure (altimeter): 29.82 inches Hg (1010.0 mb)
Winds: from the SW (220 degrees) at 5 MPH (4 knots; 2.1 m/s)
Visibility: 6 or more miles (10+ km)
Ceiling: ceiling and visibility are OK
Clouds: unknown
Weather: no significant weather observed at this time

METAR text: DRZA 191200Z 22008KT CAVOK 36/17 Q1011
Conditions at: DRZA (AGADEZ SOUTH (MI, NE) observed 1200 UTC 19 August 2019
Temperature: 36.0°C (97°F)
Dewpoint: 17.0°C (63°F) [RH = 33%]
Pressure (altimeter): 29.85 inches Hg (1011.0 mb)
Winds: from the SW (220 degrees) at 9 MPH (8 knots; 4.1 m/s)
Visibility: 6 or more miles (10+ km)
Ceiling: ceiling and visibility are OK
Clouds: unknown
Weather: no significant weather observed at this time

METAR text: DRZA 191100Z 36010KT 9999 FEW040 35/19 Q1012
Conditions at: DRZA (AGADEZ SOUTH (MI, NE) observed 1100 UTC 19 August 2019
Temperature: 35.0°C (95°F)
Dewpoint: 19.0°C (66°F) [RH = 39%]
Pressure (altimeter): 29.88 inches Hg (1012.0 mb)
Winds: from the N (360 degrees) at 12 MPH (10 knots; 5.1 m/s)
Visibility: 6 or more miles (10+ km)
Ceiling: at least 12,000 feet AGL
Clouds: few clouds at 4000 feet AGL
Weather: no significant weather observed at this time

METAR text: DRZA 191000Z 26014KT CAVOK 33/21 Q1012
Conditions at: DRZA (AGADEZ SOUTH (MI, NE) observed 1000 UTC 19 August 2019
Temperature: 33.0°C (91°F)
Dewpoint: 21.0°C (70°F) [RH = 49%]
Pressure (altimeter): 29.88 inches Hg (1012.0 mb)
Winds: from the W (260 degrees) at 16 MPH (14 knots; 7.2 m/s)
Visibility: 6 or more miles (10+ km)
Ceiling: ceiling and visibility are OK
Clouds: unknown
Weather: no significant weather observed at this time

METAR text: DRZA 190900Z 24012KT CAVOK 32/21 Q1012
Conditions at: DRZA (AGADEZ SOUTH (MI, NE) observed 0900 UTC 19 August 2019
Temperature: 32.0°C (90°F)
Dewpoint: 21.0°C (70°F) [RH = 52%]
Pressure (altimeter): 29.88 inches Hg (1012.0 mb)
Winds: from the WSW (240 degrees) at 14 MPH (12 knots; 6.2 m/s)
Visibility: 6 or more miles (10+ km)
Ceiling: ceiling and visibility are OK
Clouds: unknown
Weather: no significant weather observed at this time

Forecast for: COR
Text: TAF COR DRZA 201700Z 2018/2118 28010KT 9999 TS BKN030 FEW040CB
Forecast period: 1800 UTC 20 August 2019 to 0000 UTC 21 August 2019
Forecast type: FROM: standard forecast or significant change
Winds: from the W (280 degrees) at 12 MPH (10 knots; 5.1 m/s)
Visibility: 6 or more miles 10+ km)
Ceiling: 3000 feet AGL
Clouds: broken clouds at 3000 feet AGL
few clouds at 4000 feet AGL
Weather: TS  (thunderstorm)
Text: TEMPO 2018/2024 3000 TSRA
Forecast period: 1800 UTC 20 August 2019 to 0000 UTC 21 August 2019
Forecast type: TEMPORARY: The following changes expected for less than half the time period
Visibility: 1.86 miles (2.99 km)
Ceiling: unknown
Clouds: missing
Weather: TSRA  (rain associated with thunderstorm(s))
Text: BECMG 2100/2102 28010KT 9999 NSW FEW030
Forecast period: 0000 to 1800 UTC 21 August 2019
Forecast type: BECOMING: Conditions expected to become as follows by 0200 UTC 21 August 2019
Winds: from the W (280 degrees) at 12 MPH (10 knots; 5.1 m/s)
Visibility: 6 or more miles 10+ km)
Ceiling: at least 12,000 feet AGL
Clouds: few clouds at 3000 feet AGL
Weather: NSW  (no significant weather)